createdAt,value
2016-05-17T00:00:35.609Z,0
2016-05-17T00:01:35.612Z,0
2016-05-17T00:02:35.631Z,0
2016-05-17T00:03:35.492Z,0
2016-05-17T00:04:35.651Z,0
2016-05-17T00:05:35.638Z,0
2016-05-17T00:06:36.235Z,0
2016-05-17T00:07:35.503Z,0
2016-05-17T00:08:35.661Z,0
2016-05-17T00:09:35.664Z,0
2016-05-17T00:10:35.371Z,0
2016-05-17T00:11:35.530Z,0
2016-05-17T00:12:35.689Z,0
2016-05-17T00:13:35.550Z,0
2016-05-17T00:14:35.725Z,0
2016-05-17T00:15:35.555Z,0
2016-05-17T00:16:35.699Z,0
2016-05-17T00:17:35.733Z,0
2016-05-17T00:18:35.720Z,0
2016-05-17T00:19:35.739Z,0
2016-05-17T00:20:35.741Z,0
2016-05-17T00:21:35.932Z,0
2016-05-17T00:22:35.732Z,0
2016-05-17T00:23:35.468Z,0
2016-05-17T00:24:35.752Z,0
2016-05-17T00:25:35.786Z,0
2016-05-17T00:26:35.789Z,0
2016-05-17T00:27:35.776Z,0
2016-05-17T00:28:35.638Z,0
2016-05-17T00:29:35.797Z,0
2016-05-17T00:30:35.815Z,0
2016-05-17T00:31:35.645Z,0
2016-05-17T00:32:35.821Z,0
2016-05-17T00:33:35.683Z,0
2016-05-17T00:34:35.513Z,0
2016-05-17T00:35:35.813Z,0
2016-05-17T00:36:36.487Z,0
2016-05-17T00:37:35.834Z,0
2016-05-17T00:38:35.837Z,0
2016-05-17T00:39:35.855Z,0
2016-05-17T00:40:35.873Z,0
2016-05-17T00:41:35.704Z,0
2016-05-17T00:42:35.863Z,0
2016-05-17T00:43:35.881Z,0
2016-05-17T00:44:35.744Z,0
2016-05-17T00:45:35.747Z,0
2016-05-17T00:46:35.889Z,0
2016-05-17T00:47:35.736Z,0
2016-05-17T00:48:35.927Z,0
2016-05-17T00:49:35.929Z,0
2016-05-17T00:50:35.759Z,0
2016-05-17T00:51:36.309Z,0
2016-05-17T00:52:35.921Z,0
2016-05-17T00:53:35.924Z,0
2016-05-17T00:54:35.957Z,0
2016-05-17T00:55:35.960Z,0
2016-05-17T00:56:35.948Z,0
2016-05-17T00:57:35.965Z,0
2016-05-17T00:58:35.812Z,0
2016-05-17T00:59:35.971Z,0
2016-05-17T01:00:35.834Z,0
2016-05-17T01:01:35.993Z,0
2016-05-17T01:02:35.995Z,0
2016-05-17T01:03:35.857Z,0
2016-05-17T01:04:35.844Z,0
2016-05-17T01:05:36.019Z,0
2016-05-17T01:06:36.614Z,0
2016-05-17T01:07:35.728Z,0
2016-05-17T01:08:36.042Z,0
2016-05-17T01:09:36.045Z,0
2016-05-17T01:10:36.064Z,0
2016-05-17T01:11:35.894Z,0
2016-05-17T01:12:35.897Z,0
2016-05-17T01:13:35.916Z,0
2016-05-17T01:14:36.074Z,0
2016-05-17T01:15:36.077Z,0
2016-05-17T01:16:35.767Z,0
2016-05-17T01:17:35.942Z,0
2016-05-17T01:18:35.944Z,0
2016-05-17T01:19:35.791Z,0
2016-05-17T01:20:35.794Z,0
2016-05-17T01:21:35.890Z,0
2016-05-17T01:22:36.111Z,0
2016-05-17T01:23:36.129Z,0
2016-05-17T01:24:36.132Z,0
2016-05-17T01:25:36.166Z,0
2016-05-17T01:26:36.154Z,0
2016-05-17T01:27:36.140Z,0
2016-05-17T01:28:36.159Z,0
2016-05-17T01:29:36.161Z,0
2016-05-17T01:30:36.164Z,0
2016-05-17T01:31:36.182Z,0
2016-05-17T01:32:36.184Z,0
2016-05-17T01:33:36.048Z,0
2016-05-17T01:34:36.034Z,0
2016-05-17T01:35:36.193Z,0
2016-05-17T01:36:36.071Z,0
2016-05-17T01:37:36.230Z,0
2016-05-17T01:38:36.061Z,0
2016-05-17T01:39:36.078Z,0
2016-05-17T01:40:36.097Z,0
2016-05-17T01:41:36.256Z,0
2016-05-17T01:42:36.244Z,0
2016-05-17T01:43:36.105Z,0
2016-05-17T01:44:36.249Z,0
2016-05-17T01:45:36.266Z,0
2016-05-17T01:46:36.254Z,0
2016-05-17T01:47:36.147Z,0
2016-05-17T01:48:36.118Z,0
2016-05-17T01:49:36.294Z,0
2016-05-17T01:50:36.296Z,0
2016-05-17T01:51:36.643Z,0
2016-05-17T01:52:36.302Z,0
2016-05-17T01:53:36.319Z,0
2016-05-17T01:54:35.994Z,0
2016-05-17T01:55:36.309Z,0
2016-05-17T01:56:36.171Z,0
2016-05-17T01:57:36.174Z,0
2016-05-17T01:58:36.193Z,0
2016-05-17T01:59:36.351Z,0
2016-05-17T02:00:36.042Z,0
2016-05-17T02:01:36.201Z,0
2016-05-17T02:02:36.359Z,0
2016-05-17T02:03:36.378Z,0
2016-05-17T02:04:36.223Z,0
2016-05-17T02:05:36.384Z,0
2016-05-17T02:06:36.073Z,0
2016-05-17T02:07:36.389Z,0
2016-05-17T02:08:36.423Z,0
2016-05-17T02:09:36.409Z,0
2016-05-17T02:10:36.412Z,0
2016-05-17T02:11:36.431Z,0
2016-05-17T02:12:36.105Z,0
2016-05-17T02:13:36.436Z,0
2016-05-17T02:14:36.439Z,0
2016-05-17T02:15:36.441Z,0
2016-05-17T02:16:36.460Z,0
2016-05-17T02:17:36.494Z,0
2016-05-17T02:18:36.324Z,0
2016-05-17T02:19:36.484Z,0
2016-05-17T02:20:36.016Z,0
2016-05-17T02:21:36.676Z,0
2016-05-17T02:22:36.179Z,0
2016-05-17T02:23:36.494Z,0
2016-05-17T02:24:36.325Z,0
2016-05-17T02:25:36.499Z,0
2016-05-17T02:26:36.362Z,0
2016-05-17T02:27:36.505Z,0
2016-05-17T02:28:36.351Z,0
2016-05-17T02:29:36.541Z,0
2016-05-17T02:30:36.216Z,0
2016-05-17T02:31:36.532Z,0
2016-05-17T02:32:36.081Z,0
2016-05-17T02:33:36.349Z,0
2016-05-17T02:34:36.383Z,0
2016-05-17T02:35:36.557Z,0
2016-05-17T02:36:36.263Z,0
2016-05-17T02:37:36.329Z,0
2016-05-17T02:38:36.425Z,0
2016-05-17T02:39:36.678Z,0
2016-05-17T02:40:35.993Z,0
2016-05-17T02:41:36.495Z,0
2016-05-17T02:42:36.436Z,0
2016-05-17T02:43:36.610Z,0
2016-05-17T02:44:36.613Z,0
2016-05-17T02:45:36.303Z,0
2016-05-17T02:46:36.478Z,0
2016-05-17T02:47:36.637Z,0
2016-05-17T02:48:36.639Z,0
2016-05-17T02:49:36.641Z,0
2016-05-17T02:50:36.644Z,0
2016-05-17T02:51:37.086Z,0
2016-05-17T02:52:36.666Z,0
2016-05-17T02:53:36.669Z,0
2016-05-17T02:54:36.515Z,0
2016-05-17T02:55:36.221Z,0
2016-05-17T02:56:36.396Z,0
2016-05-17T02:57:36.710Z,0
2016-05-17T02:58:36.698Z,0
2016-05-17T02:59:36.716Z,0
2016-05-17T03:00:36.704Z,0
2016-05-17T03:01:36.565Z,0
2016-05-17T03:02:36.709Z,0
2016-05-17T03:03:36.429Z,0
2016-05-17T03:04:36.745Z,0
2016-05-17T03:05:36.435Z,0
2016-05-17T03:06:36.625Z,0
2016-05-17T03:07:36.753Z,0
2016-05-17T03:08:36.756Z,0
2016-05-17T03:09:36.445Z,0
2016-05-17T03:10:36.776Z,0
2016-05-17T03:11:36.467Z,0
2016-05-17T03:12:36.642Z,0
2016-05-17T03:13:36.628Z,0
2016-05-17T03:14:36.803Z,0
2016-05-17T03:15:36.649Z,0
2016-05-17T03:16:36.793Z,0
2016-05-17T03:17:36.811Z,0
2016-05-17T03:18:36.830Z,0
2016-05-17T03:19:36.817Z,0
2016-05-17T03:20:36.663Z,0
2016-05-17T03:21:37.509Z,0
2016-05-17T03:22:36.840Z,0
2016-05-17T03:23:36.702Z,0
2016-05-17T03:24:36.736Z,0
2016-05-17T03:25:36.863Z,0
2016-05-17T03:26:36.991Z,0
2016-05-17T03:27:36.885Z,0
2016-05-17T03:28:36.919Z,0
2016-05-17T03:29:38.452Z,0
2016-05-17T03:30:36.877Z,0
2016-05-17T03:31:36.739Z,0
2016-05-17T03:32:36.743Z,0
2016-05-17T03:33:36.918Z,0
2016-05-17T03:34:36.810Z,0
2016-05-17T03:35:36.923Z,0
2016-05-17T03:36:36.940Z,0
2016-05-17T03:37:36.928Z,0
2016-05-17T03:38:36.773Z,0
2016-05-17T03:39:36.793Z,0
2016-05-17T03:40:36.795Z,0
2016-05-17T03:41:36.954Z,0
2016-05-17T03:42:36.972Z,0
2016-05-17T03:43:36.959Z,0
2016-05-17T03:44:36.978Z,0
2016-05-17T03:45:36.995Z,0
2016-05-17T03:46:36.670Z,0
2016-05-17T03:47:36.985Z,0
2016-05-17T03:48:36.989Z,0
2016-05-17T03:49:37.006Z,0
2016-05-17T03:50:37.008Z,0
2016-05-17T03:51:37.403Z,0
2016-05-17T03:52:37.030Z,0
2016-05-17T03:53:37.033Z,0
2016-05-17T03:54:37.035Z,0
2016-05-17T03:55:37.038Z,0
2016-05-17T03:56:37.041Z,0
2016-05-17T03:57:36.903Z,0
2016-05-17T03:58:37.046Z,0
2016-05-17T03:59:37.065Z,0
2016-05-17T04:00:36.911Z,0
2016-05-17T04:01:37.085Z,0
2016-05-17T04:02:36.916Z,0
2016-05-17T04:03:36.918Z,0
2016-05-17T04:04:36.938Z,0
2016-05-17T04:05:36.941Z,0
2016-05-17T04:06:37.552Z,0
2016-05-17T04:07:36.977Z,0
2016-05-17T04:08:36.964Z,0
2016-05-17T04:09:37.123Z,0
2016-05-17T04:10:37.141Z,0
2016-05-17T04:11:37.128Z,0
2016-05-17T04:12:36.975Z,0
2016-05-17T04:13:37.150Z,0
2016-05-17T04:14:36.839Z,0
2016-05-17T04:15:37.155Z,0
2016-05-17T04:16:37.173Z,0
2016-05-17T04:17:36.863Z,0
2016-05-17T04:18:37.178Z,0
2016-05-17T04:19:37.180Z,0
2016-05-17T04:20:37.028Z,0
2016-05-17T04:21:37.828Z,0
2016-05-17T04:22:37.049Z,0
2016-05-17T04:23:37.208Z,0
2016-05-17T04:24:37.210Z,0
2016-05-17T04:25:37.213Z,0
2016-05-17T04:26:37.059Z,0
2016-05-17T04:27:37.233Z,0
2016-05-17T04:28:37.065Z,0
2016-05-17T04:29:37.333Z,0
2016-05-17T04:30:37.101Z,0
2016-05-17T04:31:37.104Z,0
2016-05-17T04:32:37.107Z,0
2016-05-17T04:33:37.265Z,0
2016-05-17T04:34:37.284Z,0
2016-05-17T04:35:37.317Z,0
2016-05-17T04:36:37.165Z,0
2016-05-17T04:37:37.136Z,0
2016-05-17T04:38:37.295Z,0
2016-05-17T04:39:37.298Z,5
2016-05-17T04:40:37.315Z,5
2016-05-17T04:41:37.303Z,5
2016-05-17T04:42:37.180Z,5
2016-05-17T04:43:37.323Z,5
2016-05-17T04:44:37.170Z,5
2016-05-17T04:45:37.189Z,5
2016-05-17T04:46:37.348Z,5
2016-05-17T04:47:37.350Z,5
2016-05-17T04:48:37.353Z,5
2016-05-17T04:49:37.386Z,5
2016-05-17T04:50:37.374Z,5
2016-05-17T04:51:37.547Z,5
2016-05-17T04:52:37.223Z,5
2016-05-17T04:53:37.226Z,5
2016-05-17T04:54:37.416Z,5
2016-05-17T04:55:37.419Z,5
2016-05-17T04:56:37.249Z,5
2016-05-17T04:57:37.408Z,5
2016-05-17T04:58:37.411Z,5
2016-05-17T04:59:37.429Z,5
2016-05-17T05:00:37.276Z,5
2016-05-17T05:01:37.122Z,5
2016-05-17T05:02:37.282Z,5
2016-05-17T05:03:37.284Z,5
2016-05-17T05:04:37.130Z,5
2016-05-17T05:05:37.304Z,5
2016-05-17T05:06:37.370Z,5
2016-05-17T05:07:37.465Z,5
2016-05-17T05:08:37.468Z,5
2016-05-17T05:09:37.337Z,5
2016-05-17T05:10:37.398Z,5
2016-05-17T05:11:37.600Z,5
2016-05-17T05:12:37.645Z,5
2016-05-17T05:13:37.691Z,5
2016-05-17T05:14:37.582Z,5
2016-05-17T05:15:37.600Z,5
2016-05-17T05:16:37.776Z,5
2016-05-17T05:17:37.793Z,5
2016-05-17T05:18:37.827Z,10
2016-05-17T05:19:37.825Z,10
2016-05-17T05:20:37.848Z,10
2016-05-17T05:21:37.575Z,10
2016-05-17T05:22:37.864Z,10
2016-05-17T05:23:37.887Z,10
2016-05-17T05:24:37.738Z,10
2016-05-17T05:25:38.055Z,10
2016-05-17T05:26:37.904Z,10
2016-05-17T05:27:37.767Z,10
2016-05-17T05:28:37.944Z,10
2016-05-17T05:29:37.917Z,10
2016-05-17T05:30:37.936Z,10
2016-05-17T05:31:37.954Z,10
2016-05-17T05:32:37.958Z,10
2016-05-17T05:33:37.962Z,10
2016-05-17T05:34:37.949Z,10
2016-05-17T05:35:37.968Z,10
2016-05-17T05:36:37.846Z,10
2016-05-17T05:37:37.521Z,10
2016-05-17T05:38:37.837Z,10
2016-05-17T05:39:37.996Z,10
2016-05-17T05:40:37.842Z,10
2016-05-17T05:41:38.032Z,10
2016-05-17T05:42:38.019Z,10
2016-05-17T05:43:38.007Z,10
2016-05-17T05:44:38.040Z,10
2016-05-17T05:45:38.012Z,10
2016-05-17T05:46:38.030Z,10
2016-05-17T05:47:38.048Z,10
2016-05-17T05:48:38.036Z,10
2016-05-17T05:49:37.897Z,10
2016-05-17T05:50:37.790Z,10
2016-05-17T05:51:38.278Z,10
2016-05-17T05:52:38.093Z,10
2016-05-17T05:53:37.768Z,10
2016-05-17T05:54:37.927Z,10
2016-05-17T05:55:37.945Z,10
2016-05-17T05:56:38.089Z,10
2016-05-17T05:57:37.935Z,10
2016-05-17T05:58:37.937Z,10
2016-05-17T05:59:38.112Z,15
2016-05-17T06:00:38.100Z,15
2016-05-17T06:01:38.133Z,15
2016-05-17T06:03:06.323Z,15
2016-05-17T06:03:37.983Z,15
2016-05-17T06:04:38.157Z,15
2016-05-17T06:05:37.988Z,15
2016-05-17T06:06:38.287Z,15
2016-05-17T06:07:38.008Z,15
2016-05-17T06:08:37.996Z,15
2016-05-17T06:09:38.014Z,15
2016-05-17T06:10:38.173Z,15
2016-05-17T06:11:38.191Z,15
2016-05-17T06:12:38.021Z,15
2016-05-17T06:13:38.040Z,15
2016-05-17T06:14:38.199Z,15
2016-05-17T06:15:38.202Z,15
2016-05-17T06:16:39.032Z,15
2016-05-17T06:17:38.223Z,15
2016-05-17T06:18:38.226Z,15
2016-05-17T06:19:38.072Z,15
2016-05-17T06:20:38.232Z,15
2016-05-17T06:21:38.874Z,15
2016-05-17T06:22:38.236Z,15
2016-05-17T06:23:38.254Z,15
2016-05-17T06:24:38.273Z,10
2016-05-17T06:25:38.260Z,10
2016-05-17T06:26:38.263Z,10
2016-05-17T06:27:38.282Z,10
2016-05-17T06:28:38.267Z,15
2016-05-17T06:29:38.287Z,15
2016-05-17T06:30:38.273Z,15
2016-05-17T06:31:38.308Z,15
2016-05-17T06:32:38.295Z,15
2016-05-17T06:33:38.298Z,15
2016-05-17T06:34:38.300Z,20
2016-05-17T06:35:38.303Z,20
2016-05-17T06:36:38.353Z,20
2016-05-17T06:37:38.027Z,20
2016-05-17T06:38:38.170Z,20
2016-05-17T06:39:38.344Z,20
2016-05-17T06:40:38.191Z,25
2016-05-17T06:41:38.350Z,25
2016-05-17T06:42:38.353Z,25
2016-05-17T06:43:38.215Z,25
2016-05-17T06:44:38.202Z,25
2016-05-17T06:45:38.377Z,25
2016-05-17T06:46:38.379Z,25
2016-05-17T06:47:38.398Z,30
2016-05-17T06:48:38.384Z,30
2016-05-17T06:49:38.418Z,30
2016-05-17T06:50:38.406Z,30
2016-05-17T06:51:38.534Z,30
2016-05-17T06:52:38.411Z,30
2016-05-17T06:53:38.414Z,30
2016-05-17T06:54:38.432Z,35
2016-05-17T06:55:38.434Z,35
2016-05-17T06:56:38.437Z,35
2016-05-17T06:57:38.283Z,35
2016-05-17T06:58:38.287Z,35
2016-05-17T06:59:38.461Z,35
2016-05-17T07:00:38.464Z,35
2016-05-17T07:01:38.450Z,35
2016-05-17T07:02:38.469Z,35
2016-05-17T07:03:38.175Z,35
2016-05-17T07:04:38.177Z,35
2016-05-17T07:05:38.492Z,35
2016-05-17T07:06:38.636Z,35
2016-05-17T07:07:38.514Z,35
2016-05-17T07:08:38.500Z,35
2016-05-17T07:09:38.519Z,35
2016-05-17T07:10:38.521Z,35
2016-05-17T07:11:38.368Z,35
2016-05-17T07:12:38.543Z,35
2016-05-17T07:13:38.374Z,35
2016-05-17T07:14:38.391Z,35
2016-05-17T07:15:38.394Z,35
2016-05-17T07:16:38.554Z,35
2016-05-17T07:17:38.572Z,40
2016-05-17T07:18:38.559Z,40
2016-05-17T07:19:39.187Z,40
2016-05-17T07:20:38.486Z,40
2016-05-17T07:21:38.692Z,40
2016-05-17T07:22:38.601Z,40
2016-05-17T07:23:38.431Z,40
2016-05-17T07:24:38.294Z,40
2016-05-17T07:25:38.609Z,40
2016-05-17T07:26:38.628Z,40
2016-05-17T07:27:38.615Z,40
2016-05-17T07:28:38.476Z,40
2016-05-17T07:29:38.479Z,40
2016-05-17T07:30:38.638Z,40
2016-05-17T07:31:38.641Z,45
2016-05-17T07:32:38.519Z,45
2016-05-17T07:33:38.506Z,45
2016-05-17T07:34:38.680Z,45
2016-05-17T07:35:38.355Z,45
2016-05-17T07:36:38.842Z,45
2016-05-17T07:37:39.172Z,45
2016-05-17T07:38:38.691Z,45
2016-05-17T07:39:38.709Z,45
2016-05-17T07:40:38.696Z,45
2016-05-17T07:41:38.543Z,45
2016-05-17T07:42:38.717Z,45
2016-05-17T07:43:38.735Z,45
2016-05-17T07:44:38.722Z,45
2016-05-17T07:45:38.724Z,45
2016-05-17T07:46:38.588Z,45
2016-05-17T07:47:38.763Z,45
2016-05-17T07:48:38.593Z,45
2016-05-17T07:49:38.768Z,45
2016-05-17T07:50:38.457Z,45
2016-05-17T07:51:38.695Z,45
2016-05-17T07:52:38.635Z,45
2016-05-17T07:53:38.778Z,45
2016-05-17T07:54:38.796Z,45
2016-05-17T07:55:38.798Z,45
2016-05-17T07:56:38.787Z,45
2016-05-17T07:57:38.820Z,45
2016-05-17T07:58:38.823Z,45
2016-05-17T07:59:38.842Z,50
2016-05-17T08:00:38.812Z,50
2016-05-17T08:01:38.847Z,55
2016-05-17T08:02:38.693Z,60
2016-05-17T08:03:38.695Z,65
2016-05-17T08:04:38.698Z,65
2016-05-17T08:05:38.716Z,65
2016-05-17T08:06:39.032Z,70
2016-05-17T08:07:39.347Z,70
2016-05-17T08:08:38.880Z,70
2016-05-17T08:09:38.900Z,70
2016-05-17T08:10:38.902Z,70
2016-05-17T08:11:38.936Z,70
2016-05-17T08:12:38.767Z,70
2016-05-17T08:13:38.910Z,75
2016-05-17T08:14:38.788Z,80
2016-05-17T08:15:38.930Z,75
2016-05-17T08:16:38.933Z,80
2016-05-17T08:17:38.780Z,75
2016-05-17T08:18:38.782Z,80
2016-05-17T08:19:38.660Z,75
2016-05-17T08:20:38.960Z,75
2016-05-17T08:21:38.993Z,75
2016-05-17T08:22:38.825Z,70
2016-05-17T08:23:38.984Z,65
2016-05-17T08:24:38.846Z,65
2016-05-17T08:25:39.004Z,65
2016-05-17T08:26:39.007Z,70
2016-05-17T08:27:38.995Z,75
2016-05-17T08:28:39.012Z,75
2016-05-17T08:29:39.031Z,75
2016-05-17T08:30:39.050Z,75
2016-05-17T08:31:38.881Z,75
2016-05-17T08:32:39.055Z,75
2016-05-17T08:33:38.901Z,80
2016-05-17T08:34:38.904Z,80
2016-05-17T08:35:39.079Z,85
2016-05-17T08:36:39.753Z,85
2016-05-17T08:37:39.178Z,90
2016-05-17T08:38:39.087Z,95
2016-05-17T08:39:39.089Z,95
2016-05-17T08:40:39.092Z,100
2016-05-17T08:41:38.955Z,100
2016-05-17T08:42:39.113Z,105
2016-05-17T08:43:39.131Z,105
2016-05-17T08:44:38.977Z,110
2016-05-17T08:45:39.152Z,110
2016-05-17T08:46:39.139Z,115
2016-05-17T08:47:39.158Z,110
2016-05-17T08:48:39.160Z,110
2016-05-17T08:49:39.147Z,105
2016-05-17T08:50:39.165Z,100
2016-05-17T08:51:38.887Z,95
2016-05-17T08:52:39.046Z,95
2016-05-17T08:53:39.190Z,95
2016-05-17T08:54:39.036Z,95
2016-05-17T08:55:39.210Z,90
2016-05-17T08:56:39.057Z,90
2016-05-17T08:57:39.216Z,95
2016-05-17T08:58:39.234Z,95
2016-05-17T08:59:39.237Z,100
2016-05-17T09:00:39.084Z,105
2016-05-17T09:01:39.086Z,105
2016-05-17T09:02:39.089Z,110
2016-05-17T09:03:39.106Z,110
2016-05-17T09:04:39.125Z,115
2016-05-17T09:05:39.269Z,115
2016-05-17T09:06:39.411Z,115
2016-05-17T09:07:39.008Z,115
2016-05-17T09:08:38.995Z,115
2016-05-17T09:09:39.326Z,110
2016-05-17T09:10:39.173Z,110
2016-05-17T09:11:39.300Z,105
2016-05-17T09:12:39.319Z,105
2016-05-17T09:13:42.368Z,100
2016-05-17T09:14:39.340Z,100
2016-05-17T09:15:39.186Z,105
2016-05-17T09:16:39.049Z,105
2016-05-17T09:17:39.207Z,110
2016-05-17T09:18:39.366Z,110
2016-05-17T09:19:39.227Z,115
2016-05-17T09:20:39.387Z,145
2016-05-17T09:21:39.249Z,135
2016-05-17T09:22:39.908Z,150
2016-05-17T09:23:39.458Z,145
2016-05-17T09:24:39.413Z,145
2016-05-17T09:25:39.432Z,145
2016-05-17T09:26:39.435Z,140
2016-05-17T09:27:39.265Z,140
2016-05-17T09:28:39.424Z,140
2016-05-17T09:29:39.443Z,150
2016-05-17T09:30:39.273Z,150
2016-05-17T09:31:39.448Z,150
2016-05-17T09:32:39.295Z,150
2016-05-17T09:33:39.501Z,155
2016-05-17T09:34:39.487Z,160
2016-05-17T09:35:39.475Z,155
2016-05-17T09:36:40.181Z,155
2016-05-17T09:37:39.495Z,150
2016-05-17T09:38:39.514Z,150
2016-05-17T09:39:39.517Z,155
2016-05-17T09:40:39.519Z,160
2016-05-17T09:41:39.537Z,160
2016-05-17T09:42:39.384Z,170
2016-05-17T09:43:39.542Z,160
2016-05-17T09:44:39.561Z,165
2016-05-17T09:45:39.563Z,155
2016-05-17T09:46:39.550Z,150
2016-05-17T09:47:39.413Z,150
2016-05-17T09:48:39.571Z,150
2016-05-17T09:49:39.574Z,150
2016-05-17T09:50:39.577Z,145
2016-05-17T09:51:39.346Z,145
2016-05-17T09:52:39.286Z,145
2016-05-17T09:53:39.305Z,145
2016-05-17T09:54:39.493Z,140
2016-05-17T09:55:39.622Z,140
2016-05-17T09:56:39.610Z,170
2016-05-17T09:57:39.471Z,160
2016-05-17T09:58:39.630Z,135
2016-05-17T09:59:39.648Z,135
2016-05-17T10:00:39.495Z,145
2016-05-17T10:01:39.498Z,150
2016-05-17T10:02:39.656Z,145
2016-05-17T10:03:39.675Z,150
2016-05-17T10:04:39.506Z,130
2016-05-17T10:05:39.695Z,150
2016-05-17T10:06:39.776Z,135
2016-05-17T10:07:39.545Z,135
2016-05-17T10:08:39.689Z,140
2016-05-17T10:09:39.550Z,135
2016-05-17T10:10:39.725Z,130
2016-05-17T10:11:39.727Z,130
2016-05-17T10:12:39.715Z,130
2016-05-17T10:13:39.748Z,130
2016-05-17T10:14:39.751Z,125
2016-05-17T10:15:39.442Z,120
2016-05-17T10:16:39.788Z,115
2016-05-17T10:17:39.791Z,120
2016-05-17T10:18:39.606Z,125
2016-05-17T10:19:39.624Z,130
2016-05-17T10:20:39.799Z,125
2016-05-17T10:21:39.817Z,125
2016-05-17T10:22:39.960Z,125
2016-05-17T10:23:39.807Z,130
2016-05-17T10:24:39.512Z,120
2016-05-17T10:25:39.828Z,120
2016-05-17T10:26:39.815Z,120
2016-05-17T10:27:39.676Z,120
2016-05-17T10:28:39.852Z,120
2016-05-17T10:29:39.698Z,115
2016-05-17T10:30:39.903Z,110
2016-05-17T10:31:39.876Z,110
2016-05-17T10:32:39.862Z,110
2016-05-17T10:33:39.896Z,100
2016-05-17T10:34:39.587Z,90
2016-05-17T10:35:39.901Z,90
2016-05-17T10:36:40.544Z,90
2016-05-17T10:37:39.923Z,85
2016-05-17T10:38:39.909Z,95
2016-05-17T10:39:39.772Z,105
2016-05-17T10:40:39.775Z,115
2016-05-17T10:41:39.793Z,115
2016-05-17T10:42:39.780Z,115
2016-05-17T10:43:39.783Z,120
2016-05-17T10:44:39.957Z,115
2016-05-17T10:45:39.803Z,115
2016-05-17T10:46:39.978Z,110
2016-05-17T10:47:39.825Z,115
2016-05-17T10:48:39.983Z,115
2016-05-17T10:49:40.002Z,115
2016-05-17T10:50:39.989Z,115
2016-05-17T10:51:40.398Z,115
2016-05-17T10:52:39.963Z,120
2016-05-17T10:53:40.028Z,135
2016-05-17T10:54:39.890Z,140
2016-05-17T10:55:40.049Z,125
2016-05-17T10:56:39.896Z,140
2016-05-17T10:57:39.898Z,150
2016-05-17T10:58:40.057Z,145
2016-05-17T10:59:40.060Z,140
2016-05-17T11:00:40.063Z,135
2016-05-17T11:01:39.924Z,135
2016-05-17T11:02:40.084Z,115
2016-05-17T11:03:40.086Z,110
2016-05-17T11:04:40.089Z,105
2016-05-17T11:05:39.951Z,105
2016-05-17T11:06:39.812Z,100
2016-05-17T11:07:39.972Z,90
2016-05-17T11:08:39.959Z,100
2016-05-17T11:09:40.134Z,90
2016-05-17T11:10:40.151Z,110
2016-05-17T11:11:40.139Z,100
2016-05-17T11:12:40.156Z,115
2016-05-17T11:13:40.175Z,115
2016-05-17T11:14:40.162Z,100
2016-05-17T11:15:40.164Z,115
2016-05-17T11:16:40.183Z,115
2016-05-17T11:17:40.030Z,115
2016-05-17T11:18:40.173Z,115
2016-05-17T11:19:40.192Z,120
2016-05-17T11:20:40.211Z,120
2016-05-17T11:21:39.915Z,90
2016-05-17T11:22:40.590Z,90
2016-05-17T11:23:39.906Z,100
2016-05-17T11:24:40.236Z,110
2016-05-17T11:25:40.239Z,95
2016-05-17T11:26:40.242Z,110
2016-05-17T11:27:40.104Z,85
2016-05-17T11:28:40.279Z,90
2016-05-17T11:29:40.265Z,85
2016-05-17T11:30:40.284Z,110
2016-05-17T11:31:40.287Z,105
2016-05-17T11:32:40.290Z,85
2016-05-17T11:33:40.135Z,85
2016-05-17T11:34:40.310Z,80
2016-05-17T11:35:40.157Z,85
2016-05-17T11:36:40.003Z,85
2016-05-17T11:37:40.255Z,85
2016-05-17T11:38:40.165Z,85
2016-05-17T11:39:40.183Z,80
2016-05-17T11:40:40.201Z,75
2016-05-17T11:41:40.345Z,70
2016-05-17T11:42:40.362Z,65
2016-05-17T11:43:40.412Z,55
2016-05-17T11:44:40.508Z,45
2016-05-17T11:45:40.355Z,40
2016-05-17T11:46:40.358Z,35
2016-05-17T11:47:40.501Z,35
2016-05-17T11:48:40.535Z,35
2016-05-17T11:49:40.241Z,35
2016-05-17T11:50:40.244Z,35
2016-05-17T11:51:40.465Z,35
2016-05-17T11:52:40.514Z,35
2016-05-17T11:53:40.267Z,35
2016-05-17T11:54:40.457Z,35
2016-05-17T11:55:40.444Z,30
2016-05-17T11:56:40.307Z,30
2016-05-17T11:57:40.434Z,30
2016-05-17T11:58:40.438Z,30
2016-05-17T11:59:40.456Z,25
2016-05-17T12:00:40.457Z,25
2016-05-17T12:01:40.460Z,25
2016-05-17T12:02:40.307Z,25
2016-05-17T12:03:40.482Z,25
2016-05-17T12:04:40.500Z,25
2016-05-17T12:05:40.644Z,25
2016-05-17T12:06:40.506Z,25
2016-05-17T12:07:40.633Z,25
2016-05-17T12:08:40.511Z,20
2016-05-17T12:09:40.357Z,25
2016-05-17T12:10:40.531Z,25
2016-05-17T12:11:40.394Z,25
2016-05-17T12:12:40.553Z,30
2016-05-17T12:13:40.384Z,30
2016-05-17T12:14:40.542Z,30
2016-05-17T12:15:40.405Z,30
2016-05-17T12:16:40.251Z,30
2016-05-17T12:17:40.410Z,35
2016-05-17T12:18:40.256Z,35
2016-05-17T12:19:40.447Z,35
2016-05-17T12:20:40.590Z,35
2016-05-17T12:21:40.874Z,40
2016-05-17T12:22:40.299Z,40
2016-05-17T12:23:40.597Z,45
2016-05-17T12:24:40.460Z,50
2016-05-17T12:25:40.463Z,50
2016-05-17T12:26:40.481Z,55
2016-05-17T12:27:40.483Z,55
2016-05-17T12:28:40.486Z,60
2016-05-17T12:29:40.333Z,65
2016-05-17T12:30:40.649Z,70
2016-05-17T12:31:40.510Z,75
2016-05-17T12:32:40.497Z,75
2016-05-17T12:33:40.672Z,75
2016-05-17T12:34:40.534Z,80
2016-05-17T12:35:40.521Z,80
2016-05-17T12:36:40.570Z,85
2016-05-17T12:37:40.901Z,75
2016-05-17T12:38:40.373Z,70
2016-05-17T12:39:40.704Z,70
2016-05-17T12:40:40.565Z,70
2016-05-17T12:41:40.568Z,70
2016-05-17T12:42:40.743Z,75
2016-05-17T12:43:40.731Z,75
2016-05-17T12:44:40.748Z,75
2016-05-17T12:45:40.751Z,75
2016-05-17T12:46:40.598Z,75
2016-05-17T12:47:40.756Z,70
2016-05-17T12:48:40.774Z,65
2016-05-17T12:49:40.777Z,60
2016-05-17T12:50:40.639Z,60
2016-05-17T12:51:40.783Z,60
2016-05-17T12:52:41.613Z,55
2016-05-17T12:53:40.647Z,55
2016-05-17T12:54:40.806Z,55
2016-05-17T12:55:40.825Z,55
2016-05-17T12:56:40.828Z,60
2016-05-17T12:57:40.830Z,60
2016-05-17T12:58:40.832Z,65
2016-05-17T12:59:40.694Z,70
2016-05-17T13:00:40.854Z,70
2016-05-17T13:01:40.700Z,70
2016-05-17T13:02:40.860Z,75
2016-05-17T13:03:40.721Z,75
2016-05-17T13:04:40.880Z,75
2016-05-17T13:05:40.727Z,75
2016-05-17T13:06:40.573Z,75
2016-05-17T13:07:40.779Z,70
2016-05-17T13:08:40.750Z,70
2016-05-17T13:09:40.753Z,65
2016-05-17T13:10:40.943Z,60
2016-05-17T13:11:40.759Z,55
2016-05-17T13:12:40.933Z,50
2016-05-17T13:13:40.936Z,45
2016-05-17T13:14:40.954Z,40
2016-05-17T13:15:40.817Z,40
2016-05-17T13:16:40.960Z,35
2016-05-17T13:17:40.947Z,35
2016-05-17T13:18:40.995Z,35
2016-05-17T13:19:40.983Z,35
2016-05-17T13:20:40.970Z,35
2016-05-17T13:21:41.192Z,30
2016-05-17T13:22:41.131Z,30
2016-05-17T13:23:40.994Z,30
2016-05-17T13:24:40.699Z,30
2016-05-17T13:25:41.031Z,30
2016-05-17T13:26:40.861Z,25
2016-05-17T13:27:40.864Z,30
2016-05-17T13:28:40.866Z,30
2016-05-17T13:29:40.869Z,30
2016-05-17T13:30:41.043Z,30
2016-05-17T13:31:41.046Z,35
2016-05-17T13:32:41.049Z,35
2016-05-17T13:33:40.911Z,40
2016-05-17T13:34:41.070Z,45
2016-05-17T13:35:40.932Z,45
2016-05-17T13:36:40.935Z,50
2016-05-17T13:37:40.969Z,50
2016-05-17T13:38:41.128Z,55
2016-05-17T13:39:41.115Z,55
2016-05-17T13:40:41.102Z,55
2016-05-17T13:41:41.137Z,55
2016-05-17T13:42:41.123Z,60
2016-05-17T13:43:41.142Z,60
2016-05-17T13:44:40.988Z,65
2016-05-17T13:45:41.162Z,70
2016-05-17T13:46:41.150Z,70
2016-05-17T13:47:41.168Z,75
2016-05-17T13:48:41.156Z,75
2016-05-17T13:49:40.845Z,75
2016-05-17T13:50:41.161Z,75
2016-05-17T13:51:41.178Z,80
2016-05-17T13:52:41.619Z,75
2016-05-17T13:53:40.919Z,75
2016-05-17T13:54:41.187Z,70
2016-05-17T13:55:41.205Z,70
2016-05-17T13:56:41.208Z,70
2016-05-17T13:57:41.069Z,70
2016-05-17T13:58:41.073Z,70
2016-05-17T13:59:41.106Z,75
2016-05-17T14:00:41.249Z,75
2016-05-17T14:01:41.236Z,70
2016-05-17T14:02:41.255Z,75
2016-05-17T14:03:41.117Z,75
2016-05-17T14:04:41.291Z,70
2016-05-17T14:05:41.122Z,70
2016-05-17T14:06:41.110Z,70
2016-05-17T14:07:41.377Z,65
2016-05-17T14:08:41.302Z,65
2016-05-17T14:09:41.305Z,65
2016-05-17T14:10:40.995Z,65
2016-05-17T14:11:41.310Z,70
2016-05-17T14:12:41.328Z,65
2016-05-17T14:13:41.331Z,65
2016-05-17T14:14:41.334Z,65
2016-05-17T14:15:41.383Z,65
2016-05-17T14:16:41.410Z,65
2016-05-17T14:17:41.016Z,65
2016-05-17T14:18:41.514Z,65
2016-05-17T14:19:41.401Z,65
2016-05-17T14:20:41.425Z,65
2016-05-17T14:21:41.506Z,65